Time;durP1;ratioP1;P1;durP2;ratioP2;P2;SDS_P1;SDS_P2;PMS_P1;PMS_P2;Temp;Humidity;BMP_temperature;BMP_pressure;BME280_temperature;BME280_humidity;BME280_pressure;Samples;Min_cycle;Max_cycle;Signal;HPM_P1;HPM_P2
2022/03/29 00:02:07;;;;;;;14.10;7.63;;;;;;;10.13;58.83;94833.66;5077695;28;20662;-73
2022/03/29 00:04:34;;;;;;;18.08;9.30;;;;;;;10.06;59.44;94842.28;5071678;28;20223;-73
2022/03/29 00:07:02;;;;;;;18.23;10.68;;;;;;;9.98;60.02;94833.03;5057385;28;20211;-73
2022/03/29 00:09:29;;;;;;;21.05;10.98;;;;;;;9.91;59.95;94835.41;5062910;28;20659;-72
2022/03/29 00:11:56;;;;;;;23.83;11.70;;;;;;;9.91;60.04;94838.13;5079881;28;20210;-72
2022/03/29 00:14:23;;;;;;;22.25;10.35;;;;;;;9.82;60.32;94842.75;5079415;28;20217;-73
2022/03/29 00:16:50;;;;;;;15.48;8.65;;;;;;;9.73;60.33;94836.50;5077794;28;20202;-72
2022/03/29 00:19:17;;;;;;;16.42;9.18;;;;;;;9.63;61.08;94826.00;5091610;28;20225;-73
2022/03/29 00:21:44;;;;;;;18.52;8.82;;;;;;;9.61;60.87;94818.19;5077207;28;20732;-73
2022/03/29 00:24:12;;;;;;;19.30;11.15;;;;;;;9.66;60.65;94821.88;5072202;28;20210;-72
2022/03/29 00:26:39;;;;;;;16.60;9.00;;;;;;;9.73;60.80;94814.88;5079558;28;20217;-73
2022/03/29 00:29:08;;;;;;;15.43;7.97;;;;;;;9.79;60.93;94824.44;5079153;28;20199;-73
2022/03/29 00:31:34;;;;;;;17.63;11.70;;;;;;;9.82;60.41;94815.69;5077403;28;20689;-73
2022/03/29 00:34:01;;;;;;;18.83;9.88;;;;;;;9.64;60.71;94811.38;5082009;28;20202;-73
2022/03/29 00:36:29;;;;;;;18.90;8.30;;;;;;;9.42;61.39;94809.59;5084206;28;20221;-73
2022/03/29 00:38:55;;;;;;;17.00;9.00;;;;;;;9.36;61.95;94804.66;5080612;28;20226;-73
2022/03/29 00:41:24;;;;;;;16.98;8.70;;;;;;;9.39;61.89;94804.03;5077309;28;20242;-73
2022/03/29 00:43:51;;;;;;;18.23;8.80;;;;;;;9.41;61.52;94801.81;5081019;28;20210;-73
2022/03/29 00:46:18;;;;;;;17.63;7.82;;;;;;;9.51;61.08;94801.50;5084408;28;20226;-73
2022/03/29 00:48:45;;;;;;;19.25;8.38;;;;;;;9.48;61.15;94802.13;5080331;28;20202;-73
2022/03/29 00:51:12;;;;;;;14.52;8.38;;;;;;;9.45;61.10;94797.34;5076822;28;20234;-72
2022/03/29 00:53:39;;;;;;;17.40;9.00;;;;;;;9.27;61.17;94800.03;5080811;28;20261;-73
2022/03/29 00:56:06;;;;;;;15.15;9.98;;;;;;;9.23;60.63;94796.34;5084444;28;20195;-73
2022/03/29 00:58:35;;;;;;;18.52;9.75;;;;;;;9.20;60.47;94791.56;5081316;28;20238;-74
2022/03/29 01:01:03;;;;;;;15.35;7.45;;;;;;;9.11;60.82;94798.88;5069833;28;20238;-72
2022/03/29 01:03:31;;;;;;;11.60;7.25;;;;;;;9.11;60.77;94782.66;5061767;28;20219;-72
2022/03/29 01:05:59;;;;;;;12.50;7.32;;;;;;;9.12;60.99;94776.16;5084384;28;20209;-73
2022/03/29 01:08:27;;;;;;;12.93;7.85;;;;;;;9.13;61.08;94775.03;5059222;28;20204;-73
2022/03/29 01:10:54;;;;;;;15.85;7.03;;;;;;;9.03;60.93;94774.50;5070253;28;20206;-72
2022/03/29 01:13:21;;;;;;;17.67;7.53;;;;;;;8.92;61.34;94774.00;5083318;28;20285;-73
2022/03/29 01:15:50;;;;;;;18.85;10.40;;;;;;;8.93;61.01;94764.78;5064866;28;20253;-73
2022/03/29 01:18:17;;;;;;;14.20;7.78;;;;;;;8.81;61.62;94761.91;5076847;28;20233;-74
2022/03/29 01:20:47;;;;;;;19.67;7.63;;;;;;;8.77;62.02;94760.91;5077208;28;20365;-73
2022/03/29 01:23:16;;;;;;;14.85;7.53;;;;;;;8.60;62.39;94755.47;5076441;28;20207;-74
2022/03/29 01:25:44;;;;;;;19.08;7.50;;;;;;;8.47;62.89;94757.94;5078090;28;20202;-74
2022/03/29 01:28:12;;;;;;;15.27;7.72;;;;;;;8.35;63.08;94755.03;5077084;28;20210;-74
2022/03/29 01:30:39;;;;;;;13.23;6.93;;;;;;;8.28;63.16;94754.66;5082559;28;20207;-74
2022/03/29 01:33:10;;;;;;;18.60;7.63;;;;;;;8.28;63.55;94743.88;5084474;28;20206;-74
2022/03/29 01:35:37;;;;;;;13.13;7.22;;;;;;;8.18;64.05;94744.13;5079084;28;20227;-72
2022/03/29 01:38:04;;;;;;;17.48;7.97;;;;;;;8.09;64.13;94745.97;5076680;28;20230;-74
2022/03/29 01:40:32;;;;;;;13.98;7.38;;;;;;;8.08;64.24;94739.78;5081794;28;20723;-73
2022/03/29 01:43:01;;;;;;;19.95;7.13;;;;;;;8.05;64.31;94736.91;5082912;28;20206;-72
2022/03/29 01:45:29;;;;;;;14.52;7.00;;;;;;;8.01;64.73;94734.03;5079099;28;20213;-72
2022/03/29 01:47:57;;;;;;;13.77;6.45;;;;;;;7.95;64.77;94735.25;5076187;28;20206;-72
2022/03/29 01:50:24;;;;;;;12.52;6.45;;;;;;;8.00;64.62;94737.03;5079382;28;20238;-72
2022/03/29 01:52:51;;;;;;;11.18;6.63;;;;;;;7.98;64.45;94728.44;5084249;28;20207;-72
2022/03/29 01:55:21;;;;;;;16.80;7.72;;;;;;;7.92;64.51;94729.69;5080196;28;20202;-72
2022/03/29 01:57:51;;;;;;;14.52;7.68;;;;;;;7.94;64.83;94722.88;5076371;28;20233;-72
2022/03/29 02:00:34;;;;;;;13.48;6.88;;;;;;;7.93;65.22;94720.47;5079707;28;20207;-73
2022/03/29 02:03:03;;;;;;;13.40;6.93;;;;;;;7.84;65.16;94718.53;5081070;28;20227;-73
2022/03/29 02:05:32;;;;;;;14.23;6.97;;;;;;;7.73;65.53;94711.81;5080303;28;20245;-72
2022/03/29 02:07:59;;;;;;;14.43;7.03;;;;;;;7.62;65.76;94705.06;5086250;28;20286;-74
2022/03/29 02:10:27;;;;;;;13.00;7.60;;;;;;;7.55;66.14;94707.38;5060289;28;20249;-73
2022/03/29 02:12:55;;;;;;;11.82;6.85;;;;;;;7.49;66.16;94705.94;5083422;28;20202;-73
2022/03/29 02:15:22;;;;;;;13.18;7.38;;;;;;;7.46;66.37;94696.56;5079904;28;20211;-73
2022/03/29 02:17:49;;;;;;;12.05;6.82;;;;;;;7.43;67.35;94690.97;5084279;28;20234;-73
2022/03/29 02:20:17;;;;;;;15.02;7.28;;;;;;;7.47;67.03;94689.28;5057218;28;20322;-73
2022/03/29 02:22:44;;;;;;;15.20;6.55;;;;;;;7.54;66.38;94683.44;5072263;28;20195;-73
2022/03/29 02:25:12;;;;;;;14.02;6.63;;;;;;;7.39;67.02;94689.97;5087901;28;20399;-73
2022/03/29 02:27:41;;;;;;;12.80;7.20;;;;;;;7.34;67.01;94684.72;5083848;28;20214;-73
2022/03/29 02:30:11;;;;;;;15.70;7.63;;;;;;;7.33;66.86;94691.22;5079869;28;20233;-73
2022/03/29 02:32:38;;;;;;;16.70;7.85;;;;;;;7.22;67.04;94689.88;5082686;28;20203;-73
2022/03/29 02:35:06;;;;;;;19.83;8.07;;;;;;;7.25;67.14;94689.22;5087080;28;20218;-73
2022/03/29 02:37:33;;;;;;;13.20;7.57;;;;;;;7.25;67.10;94691.94;5084625;28;20202;-73
2022/03/29 02:40:00;;;;;;;15.23;7.60;;;;;;;7.13;67.68;94693.25;5079805;28;20285;-73
2022/03/29 02:42:27;;;;;;;15.68;6.88;;;;;;;7.09;67.40;94692.31;5081189;28;20203;-73
2022/03/29 02:44:54;;;;;;;17.05;7.15;;;;;;;7.23;67.10;94691.47;5058863;28;20221;-73
2022/03/29 02:47:23;;;;;;;17.55;7.40;;;;;;;7.27;67.15;94687.03;5060541;28;20746;-73
2022/03/29 02:49:50;;;;;;;16.70;8.10;;;;;;;7.20;67.54;94686.69;5066140;28;20238;-73
2022/03/29 02:52:18;;;;;;;12.30;7.13;;;;;;;7.13;68.03;94681.69;5065632;28;20199;-72
2022/03/29 02:54:45;;;;;;;14.80;7.22;;;;;;;7.01;68.63;94679.53;5086663;28;20206;-72
2022/03/29 02:57:12;;;;;;;13.82;7.45;;;;;;;6.99;68.84;94681.75;5085763;28;20199;-72
2022/03/29 02:59:39;;;;;;;19.23;8.18;;;;;;;6.91;68.70;94685.16;5066377;28;20691;-72
2022/03/29 03:02:06;;;;;;;18.63;9.25;;;;;;;6.94;68.65;94681.88;5052255;28;20229;-72
2022/03/29 03:04:34;;;;;;;13.10;8.27;;;;;;;6.79;68.88;94674.13;5059640;28;20202;-72
2022/03/29 03:07:02;;;;;;;14.80;7.70;;;;;;;6.86;68.62;94682.56;5086064;28;20582;-73
2022/03/29 03:09:28;;;;;;;16.70;8.07;;;;;;;6.81;69.23;94674.63;5072694;28;20203;-72
2022/03/29 03:11:56;;;;;;;21.02;8.18;;;;;;;6.78;69.40;94672.53;5085518;28;20202;-72
2022/03/29 03:14:22;;;;;;;20.38;8.15;;;;;;;6.64;69.75;94677.13;5080688;28;20260;-73
2022/03/29 03:16:49;;;;;;;19.50;8.52;;;;;;;6.36;70.60;94682.53;5075495;28;20263;-72
2022/03/29 03:19:16;;;;;;;17.30;7.93;;;;;;;6.51;70.52;94680.63;5069027;28;20238;-72
2022/03/29 03:21:45;;;;;;;15.40;8.10;;;;;;;6.53;70.72;94675.75;5078605;28;20285;-73
2022/03/29 03:24:13;;;;;;;19.10;8.88;;;;;;;6.64;70.44;94674.44;5090712;28;20205;-73
2022/03/29 03:26:40;;;;;;;18.58;8.00;;;;;;;6.72;70.03;94668.34;5073645;28;20658;-73
2022/03/29 03:29:07;;;;;;;18.60;7.93;;;;;;;6.72;70.05;94677.22;5061083;28;20625;-73
2022/03/29 03:31:34;;;;;;;15.40;8.32;;;;;;;6.81;70.19;94677.31;5085263;28;20673;-74
2022/03/29 03:34:00;;;;;;;15.90;8.23;;;;;;;6.91;68.95;94679.78;5081219;28;20233;-73
2022/03/29 03:36:28;;;;;;;14.98;8.18;;;;;;;6.83;69.67;94677.81;5078646;28;20203;-73
2022/03/29 03:38:56;;;;;;;21.13;10.43;;;;;;;6.74;70.49;94668.84;5082504;28;20337;-73
2022/03/29 03:41:23;;;;;;;24.38;10.43;;;;;;;6.80;70.07;94667.63;5085113;28;20199;-73
2022/03/29 03:43:50;;;;;;;17.20;8.65;;;;;;;6.75;69.63;94665.03;5062475;28;20233;-73
2022/03/29 03:46:17;;;;;;;24.33;12.38;;;;;;;6.65;70.41;94665.28;5054492;28;20631;-73
2022/03/29 03:48:43;;;;;;;32.33;16.05;;;;;;;6.63;70.41;94672.84;5081132;28;20590;-73
2022/03/29 03:51:10;;;;;;;29.70;13.27;;;;;;;6.64;70.48;94669.84;5077537;28;20237;-73
2022/03/29 03:53:37;;;;;;;21.27;10.05;;;;;;;6.54;70.55;94677.34;5070955;28;20195;-73
2022/03/29 03:56:06;;;;;;;20.80;11.48;;;;;;;6.56;70.39;94667.84;5085079;28;20199;-73
2022/03/29 03:58:33;;;;;;;19.40;10.00;;;;;;;6.49;70.67;94678.25;5060685;28;20694;-74
2022/03/29 04:01:00;;;;;;;27.98;13.70;;;;;;;6.52;70.36;94674.16;5069647;28;20423;-74
2022/03/29 04:03:26;;;;;;;32.35;18.30;;;;;;;6.52;70.95;94671.47;5069875;28;20740;-73
2022/03/29 04:05:53;;;;;;;20.00;10.35;;;;;;;6.55;70.67;94676.25;5071754;28;20210;-73
2022/03/29 04:08:20;;;;;;;23.17;10.05;;;;;;;6.64;69.99;94669.06;5069153;28;20256;-74
2022/03/29 04:10:47;;;;;;;20.75;9.10;;;;;;;6.62;70.05;94666.66;5070898;28;20203;-74
2022/03/29 04:13:15;;;;;;;23.17;10.23;;;;;;;6.59;70.32;94669.16;5083068;28;20210;-73
2022/03/29 04:15:42;;;;;;;18.67;8.93;;;;;;;6.55;70.94;94671.66;5077452;28;20218;-73
2022/03/29 04:18:09;;;;;;;32.00;16.15;;;;;;;6.53;70.92;94667.69;5078239;28;20712;-73
2022/03/29 04:20:36;;;;;;;27.60;10.27;;;;;;;6.72;69.95;94668.34;5084453;28;20549;-75
2022/03/29 04:23:02;;;;;;;21.63;9.30;;;;;;;6.62;70.61;94668.56;5070383;28;20531;-74
2022/03/29 04:25:29;;;;;;;19.40;9.43;;;;;;;6.55;70.87;94678.94;5075169;28;20280;-73
2022/03/29 04:27:56;;;;;;;21.50;10.05;;;;;;;6.56;71.22;94675.94;5064255;28;20672;-73
2022/03/29 04:30:25;;;;;;;21.67;9.75;;;;;;;6.67;70.70;94677.34;5083072;28;20203;-73
2022/03/29 04:32:52;;;;;;;14.95;8.73;;;;;;;6.85;70.16;94678.28;5082569;28;20226;-73
2022/03/29 04:35:19;;;;;;;20.90;10.30;;;;;;;7.04;69.71;94681.63;5081249;28;20195;-73
2022/03/29 04:37:46;;;;;;;19.17;9.00;;;;;;;7.24;68.75;94668.81;5069738;28;20576;-73
2022/03/29 04:40:14;;;;;;;23.08;10.45;;;;;;;7.42;68.39;94667.81;5075391;28;20583;-73
2022/03/29 04:42:45;;;;;;;20.75;9.85;;;;;;;7.64;67.38;94670.53;5064722;28;20281;-73
2022/03/29 04:45:12;;;;;;;24.48;9.73;;;;;;;7.64;67.01;94664.34;5065373;28;20647;-74
2022/03/29 04:47:41;;;;;;;19.75;9.60;;;;;;;7.87;66.37;94662.41;5074389;28;20273;-72
2022/03/29 04:50:09;;;;;;;18.52;8.93;;;;;;;7.98;66.18;94669.13;5082169;28;20322;-72
2022/03/29 04:52:37;;;;;;;23.27;10.25;;;;;;;7.93;66.66;94658.44;5084058;28;20198;-72
2022/03/29 04:55:05;;;;;;;24.65;10.35;;;;;;;8.10;66.21;94662.03;5079155;28;20285;-71
2022/03/29 04:57:32;;;;;;;24.75;10.65;;;;;;;8.57;65.46;94661.59;5077041;28;20308;-72
2022/03/29 05:00:00;;;;;;;23.20;10.30;;;;;;;8.95;63.85;94665.31;5081856;28;20246;-73
2022/03/29 05:02:26;;;;;;;28.70;10.45;;;;;;;9.34;62.96;94660.88;5071611;28;20203;-73
2022/03/29 05:04:55;;;;;;;32.05;11.38;;;;;;;10.32;59.83;94663.59;5081554;28;20195;-74
2022/03/29 05:07:22;;;;;;;32.53;11.85;;;;;;;11.09;57.24;94646.09;5084033;28;20261;-73
2022/03/29 05:09:49;;;;;;;34.80;11.88;;;;;;;11.13;56.42;94647.03;5070966;28;20227;-73
2022/03/29 05:12:16;;;;;;;28.23;11.20;;;;;;;11.72;55.64;94639.50;5083852;28;20685;-73
2022/03/29 05:14:43;;;;;;;25.25;11.98;;;;;;;12.18;54.37;94640.31;5081302;28;20751;-73
2022/03/29 05:17:10;;;;;;;33.53;13.10;;;;;;;13.01;52.12;94645.31;5068736;28;20573;-73
2022/03/29 05:19:37;;;;;;;25.70;11.95;;;;;;;13.43;50.55;94643.09;5061502;28;20230;-74
2022/03/29 05:22:06;;;;;;;29.65;14.40;;;;;;;13.59;50.01;94636.94;5074883;28;20209;-75
2022/03/29 05:24:33;;;;;;;34.75;14.30;;;;;;;13.37;49.82;94636.34;5088785;28;20202;-74
2022/03/29 05:27:00;;;;;;;44.33;15.85;;;;;;;12.64;51.50;94639.13;5076762;28;20205;-74
2022/03/29 05:29:28;;;;;;;28.92;11.93;;;;;;;12.54;52.03;94636.88;5079639;28;20210;-75
2022/03/29 05:31:56;;;;;;;35.65;12.05;;;;;;;12.03;53.17;94638.25;5083538;28;20597;-74
2022/03/29 05:34:22;;;;;;;24.83;13.07;;;;;;;11.97;53.15;94643.13;5081733;28;20202;-73
2022/03/29 05:36:49;;;;;;;29.45;12.98;;;;;;;12.20;52.95;94648.13;5078956;28;20732;-73
2022/03/29 05:39:18;;;;;;;33.00;13.80;;;;;;;12.48;52.38;94632.78;5081053;28;20235;-73
2022/03/29 05:41:45;;;;;;;36.17;14.45;;;;;;;13.24;50.24;94637.50;5087986;28;20214;-73
2022/03/29 05:44:12;;;;;;;48.17;17.45;;;;;;;13.31;50.63;94639.63;5073094;28;20222;-74
2022/03/29 05:49:24;;;;;;;45.78;18.58;;;;;;;15.77;45.23;94629.00;5080006;28;20194;-73
2022/03/29 05:51:52;;;;;;;48.88;23.05;;;;;;;15.76;44.40;94621.94;5084747;28;20262;-74
2022/03/29 05:54:20;;;;;;;42.67;20.98;;;;;;;16.11;43.70;94627.31;5086828;28;20209;-73
2022/03/29 05:56:47;;;;;;;47.22;20.23;;;;;;;16.50;42.45;94621.75;5064572;28;20238;-73
2022/03/29 05:59:14;;;;;;;35.08;16.35;;;;;;;16.04;42.58;94621.72;5082536;28;20226;-74
2022/03/29 06:01:41;;;;;;;29.13;13.85;;;;;;;16.23;41.34;94629.88;5082809;28;20213;-74
2022/03/29 06:04:08;;;;;;;29.15;14.45;;;;;;;17.21;40.02;94614.69;5079571;28;20274;-73
2022/03/29 06:06:36;;;;;;;28.20;13.80;;;;;;;17.15;39.15;94613.41;5084642;28;20694;-74
2022/03/29 06:09:03;;;;;;;28.55;13.45;;;;;;;16.32;40.78;94616.75;5081128;28;20261;-75
2022/03/29 06:11:32;;;;;;;27.17;13.32;;;;;;;15.34;42.55;94616.38;5076209;28;20198;-75
2022/03/29 06:14:00;;;;;;;28.65;12.85;;;;;;;14.67;44.10;94626.56;5079999;28;20604;-74
2022/03/29 06:16:27;;;;;;;22.52;12.95;;;;;;;16.30;41.56;94621.78;5081159;28;20608;-73
2022/03/29 06:18:54;;;;;;;21.45;13.40;;;;;;;16.76;40.07;94608.13;5059175;28;20299;-73
2022/03/29 06:21:21;;;;;;;25.45;12.82;;;;;;;15.78;41.94;94607.94;5085473;28;20198;-72
2022/03/29 06:23:48;;;;;;;27.38;12.77;;;;;;;15.50;42.69;94619.84;5079921;28;20681;-74
2022/03/29 06:26:15;;;;;;;22.33;11.77;;;;;;;15.81;42.37;94607.22;5078783;28;20199;-76
2022/03/29 06:28:43;;;;;;;21.27;12.65;;;;;;;16.08;41.92;94611.63;5080053;28;20204;-78
2022/03/29 06:31:10;;;;;;;25.83;13.07;;;;;;;15.04;43.77;94618.03;5081000;28;20199;-76
2022/03/29 06:33:37;;;;;;;20.45;12.55;;;;;;;14.86;44.34;94615.72;5066227;28;20573;-73
2022/03/29 06:36:04;;;;;;;28.88;12.65;;;;;;;14.71;44.93;94622.00;5080151;28;20219;-76
2022/03/29 06:38:32;;;;;;;21.65;12.93;;;;;;;15.56;42.96;94606.72;5086755;28;20213;-74
2022/03/29 06:40:59;;;;;;;22.77;12.60;;;;;;;15.66;42.81;94605.34;5059717;28;20605;-73
2022/03/29 06:43:26;;;;;;;34.25;12.38;;;;;;;15.68;43.05;94611.25;5080471;28;20376;-74
2022/03/29 06:45:55;;;;;;;32.63;12.18;;;;;;;16.93;40.24;94602.16;5079466;28;20203;-75
2022/03/29 06:48:23;;;;;;;22.92;12.38;;;;;;;16.47;41.08;94595.13;5085132;28;20206;-73
2022/03/29 06:50:50;;;;;;;23.42;12.07;;;;;;;16.82;40.61;94606.66;5086356;28;20269;-74
2022/03/29 06:53:17;;;;;;;20.73;12.02;;;;;;;16.90;40.79;94597.41;5081317;28;20202;-76
2022/03/29 06:55:44;;;;;;;23.52;13.82;;;;;;;17.36;39.68;94589.03;5079499;28;20227;-74
2022/03/29 06:58:11;;;;;;;20.83;13.20;;;;;;;16.98;40.05;94596.34;5084409;28;20230;-74
2022/03/29 07:00:39;;;;;;;21.10;12.77;;;;;;;16.15;41.94;94600.81;5086258;28;20283;-77
2022/03/29 07:03:08;;;;;;;33.20;13.35;;;;;;;17.09;40.63;94599.22;5081584;28;20259;-75
2022/03/29 07:05:38;;;;;;;24.83;13.52;;;;;;;17.22;39.85;94591.63;5079612;28;20286;-76
2022/03/29 07:08:05;;;;;;;25.88;13.05;;;;;;;18.30;38.70;94584.28;5083573;28;20305;-74
2022/03/29 07:13:17;;;;;;;28.35;13.10;;;;;;;17.34;39.05;94586.69;5092467;28;20648;-77
2022/03/29 07:15:43;;;;;;;25.83;13.60;;;;;;;17.13;40.14;94582.88;5078677;28;20245;-75
2022/03/29 07:18:12;;;;;;;28.08;13.35;;;;;;;17.08;40.01;94585.94;5080302;28;20313;-74
2022/03/29 07:20:39;;;;;;;22.88;12.90;;;;;;;16.32;41.44;94589.41;5085902;28;20223;-75
2022/03/29 07:23:06;;;;;;;22.45;13.30;;;;;;;16.99;40.48;94581.50;5085181;28;20704;-74
2022/03/29 07:25:33;;;;;;;30.95;14.18;;;;;;;17.19;39.89;94575.94;5078793;28;20602;-75
2022/03/29 07:28:00;;;;;;;28.38;12.88;;;;;;;16.60;40.39;94583.63;5092225;28;20259;-74
2022/03/29 07:30:28;;;;;;;24.25;13.20;;;;;;;16.61;40.85;94576.22;5065442;28;20202;-76
2022/03/29 07:32:57;;;;;;;23.25;13.23;;;;;;;17.97;38.59;94579.63;5078226;28;20227;-74
2022/03/29 07:35:29;;;;;;;20.55;12.95;;;;;;;17.40;38.90;94576.19;5065879;28;20215;-75
2022/03/29 07:37:57;;;;;;;22.80;12.05;;;;;;;17.50;38.49;94581.00;5078880;28;20206;-75
2022/03/29 07:40:25;;;;;;;20.23;11.77;;;;;;;17.71;38.34;94570.34;5082654;28;20276;-75
2022/03/29 07:43:13;;;;;;;17.73;11.05;;;;;;;17.77;37.81;94567.28;6067992;22;20171;-73
2022/03/29 07:45:42;;;;;;;18.88;11.10;;;;;;;18.72;36.18;94562.69;5026547;28;20216;-73
2022/03/29 07:48:09;;;;;;;24.15;12.32;;;;;;;18.50;36.25;94571.91;5032147;28;20200;-75
2022/03/29 07:50:38;;;;;;;18.80;11.82;;;;;;;18.09;36.65;94565.66;5031855;28;20212;-74
2022/03/29 07:53:06;;;;;;;20.08;10.73;;;;;;;17.10;37.68;94567.97;5031866;28;20243;-76
2022/03/29 07:55:34;;;;;;;18.02;10.70;;;;;;;16.56;39.28;94562.84;5031805;28;20208;-75
2022/03/29 07:58:01;;;;;;;22.60;10.68;;;;;;;16.66;39.44;94565.00;5030407;28;20231;-72
2022/03/29 08:00:35;;;;;;;17.17;10.93;;;;;;;17.42;37.53;94554.69;5030657;28;20304;-72
2022/03/29 08:03:04;;;;;;;18.50;10.77;;;;;;;17.50;37.41;94553.63;5031163;28;20231;-74
2022/03/29 08:05:31;;;;;;;19.40;11.38;;;;;;;17.47;37.38;94546.16;5031616;28;20598;-75
2022/03/29 08:07:59;;;;;;;16.95;9.52;;;;;;;17.50;37.79;94545.41;5027080;28;20213;-74
2022/03/29 08:10:28;;;;;;;20.15;9.50;;;;;;;17.67;36.65;94542.13;5024700;28;20294;-73
2022/03/29 08:12:56;;;;;;;15.95;10.07;;;;;;;17.09;37.75;94547.22;5010599;28;20247;-73
2022/03/29 08:15:23;;;;;;;19.35;11.40;;;;;;;16.56;38.89;94549.16;5010779;28;20239;-74
2022/03/29 08:17:50;;;;;;;18.15;11.18;;;;;;;16.72;39.61;94549.84;5011631;28;20209;-74
2022/03/29 08:20:17;;;;;;;17.38;11.00;;;;;;;16.62;39.04;94536.75;5011026;28;20237;-73
2022/03/29 08:22:46;;;;;;;19.23;11.52;;;;;;;16.39;39.35;94538.75;5011068;28;20216;-75
2022/03/29 08:25:15;;;;;;;23.10;10.25;;;;;;;15.87;40.59;94537.47;5029671;28;20263;-75
2022/03/29 08:27:43;;;;;;;23.33;10.05;;;;;;;16.09;39.87;94525.78;5030079;28;20212;-75
2022/03/29 08:30:10;;;;;;;21.48;10.70;;;;;;;16.44;39.81;94528.28;5029977;28;20613;-74
2022/03/29 08:32:38;;;;;;;23.63;10.48;;;;;;;16.67;39.33;94528.28;5031011;28;20235;-74
2022/03/29 08:35:06;;;;;;;19.48;9.65;;;;;;;17.30;39.01;94516.63;5013192;28;20212;-75
2022/03/29 08:37:35;;;;;;;16.98;9.07;;;;;;;17.98;36.42;94512.69;5011618;28;20211;-73
2022/03/29 08:40:02;;;;;;;20.77;10.25;;;;;;;17.81;36.93;94513.28;5010528;28;20232;-75
2022/03/29 08:42:30;;;;;;;17.48;9.68;;;;;;;17.56;38.29;94508.31;5010567;28;20208;-74
2022/03/29 08:44:59;;;;;;;18.40;10.50;;;;;;;17.12;38.68;94501.91;5010170;28;20237;-74
2022/03/29 08:47:27;;;;;;;15.90;9.65;;;;;;;16.49;38.94;94500.63;5010722;28;20717;-75
2022/03/29 08:49:54;;;;;;;15.57;8.23;;;;;;;17.30;42.21;94505.66;5011082;28;20209;-75
2022/03/29 08:52:21;;;;;;;16.35;7.68;;;;;;;17.53;38.26;94487.13;5010998;28;20264;-75
2022/03/29 08:54:49;;;;;;;18.10;8.00;;;;;;;17.33;37.01;94483.00;5010992;28;20299;-73
2022/03/29 08:57:16;;;;;;;16.60;7.78;;;;;;;17.28;36.64;94484.13;5010981;28;20228;-73
2022/03/29 08:59:44;;;;;;;19.08;7.55;;;;;;;17.92;36.02;94481.28;5029936;28;20236;-73
2022/03/29 09:02:12;;;;;;;18.30;8.57;;;;;;;18.36;36.00;94468.34;5029607;28;20223;-74
2022/03/29 09:04:39;;;;;;;17.90;8.70;;;;;;;17.50;35.51;94476.94;5030438;28;20216;-73
2022/03/29 09:07:07;;;;;;;19.25;8.70;;;;;;;16.70;37.73;94472.81;5015858;28;20205;-74
2022/03/29 09:09:38;;;;;;;16.95;8.88;;;;;;;17.34;36.82;94465.44;5019486;28;20202;-74
2022/03/29 09:12:13;;;;;;;16.05;8.10;;;;;;;17.64;35.84;94462.63;5018391;28;20235;-73
2022/03/29 09:14:55;;;;;;;19.48;8.48;;;;;;;17.65;36.81;94451.28;5014236;28;20351;-74
2022/03/29 09:17:27;;;;;;;14.60;7.28;;;;;;;17.49;36.30;94448.00;5014844;28;20208;-75
2022/03/29 09:19:55;;;;;;;21.13;7.25;;;;;;;17.62;36.24;94452.03;5027480;28;20630;-74
2022/03/29 09:22:39;;;;;;;20.48;8.18;;;;;;;17.50;36.19;94444.06;5014322;28;20765;-75
2022/03/29 09:25:07;;;;;;;19.60;8.18;;;;;;;17.83;35.95;94445.19;5032363;28;20278;-74
2022/03/29 09:27:53;;;;;;;15.15;7.82;;;;;;;17.62;36.06;94440.28;5034634;28;20250;-75
2022/03/29 09:30:22;;;;;;;15.38;7.05;;;;;;;17.77;35.36;94430.28;5027936;28;20267;-74
2022/03/29 09:32:53;;;;;;;18.20;7.15;;;;;;;17.56;35.33;94437.09;5014150;28;20593;-76
2022/03/29 09:35:20;;;;;;;20.40;7.50;;;;;;;17.79;34.96;94433.41;5034012;28;20200;-76
2022/03/29 09:37:48;;;;;;;17.00;7.68;;;;;;;18.15;35.96;94427.06;5033942;28;20208;-74
2022/03/29 09:40:16;;;;;;;13.10;6.95;;;;;;;18.56;33.43;94418.72;5033803;28;20232;-74
2022/03/29 09:42:42;;;;;;;13.60;6.55;;;;;;;16.93;35.05;94432.50;5034168;28;20208;-75
2022/03/29 09:45:10;;;;;;;16.25;7.53;;;;;;;17.16;35.60;94428.84;5025699;28;20240;-73
2022/03/29 09:47:38;;;;;;;14.77;7.00;;;;;;;16.65;36.25;94411.03;5014135;28;20213;-70
2022/03/29 09:50:08;;;;;;;21.48;7.10;;;;;;;16.79;35.83;94415.91;5014100;28;20221;-74
2022/03/29 09:52:37;;;;;;;16.30;6.47;;;;;;;17.63;35.02;94415.25;5014091;28;20263;-73
2022/03/29 09:55:14;;;;;;;18.13;6.57;;;;;;;18.00;34.49;94406.97;5013527;28;20300;-74
2022/03/29 09:57:44;;;;;;;21.60;7.53;;;;;;;18.50;33.54;94401.03;5014104;28;20296;-73
2022/03/29 10:00:13;;;;;;;18.67;7.18;;;;;;;19.23;32.70;94396.28;5013682;28;20236;-74
2022/03/29 10:02:44;;;;;;;21.48;7.80;;;;;;;19.20;31.50;94391.56;5013165;28;20213;-72
2022/03/29 10:05:12;;;;;;;17.85;6.90;;;;;;;18.55;32.68;94386.97;5013590;28;20423;-71
2022/03/29 10:07:45;;;;;;;12.88;6.25;;;;;;;18.05;33.54;94386.63;5013981;28;20212;-74
2022/03/29 10:10:12;;;;;;;14.35;6.13;;;;;;;17.27;34.68;94402.34;5026927;28;20211;-75
2022/03/29 10:12:40;;;;;;;17.00;7.10;;;;;;;17.38;34.38;94392.31;5013591;28;20201;-73
2022/03/29 10:15:09;;;;;;;15.20;6.38;;;;;;;18.45;33.42;94378.28;5026808;28;20629;-75
2022/03/29 10:17:37;;;;;;;15.25;6.85;;;;;;;18.62;32.84;94370.56;5033208;28;20208;-73
2022/03/29 10:20:06;;;;;;;12.23;5.32;;;;;;;18.54;32.75;94364.22;5033089;28;20302;-71
2022/03/29 10:22:36;;;;;;;27.98;6.32;;;;;;;18.88;33.31;94367.53;5032594;28;20260;-74
2022/03/29 10:25:03;;;;;;;121.20;12.90;;;;;;;18.91;32.72;94366.75;5015794;28;20231;-74
2022/03/29 10:27:30;;;;;;;32.05;6.53;;;;;;;18.93;31.83;94364.44;5013564;28;20212;-75
2022/03/29 10:29:58;;;;;;;20.27;6.55;;;;;;;19.04;32.38;94359.75;5012838;28;20201;-74
2022/03/29 10:32:32;;;;;;;21.15;8.00;;;;;;;19.21;32.48;94360.97;5021558;28;20208;-74
2022/03/29 10:35:09;;;;;;;30.27;7.65;;;;;;;19.34;31.67;94356.69;5032301;28;20737;-77
2022/03/29 10:37:54;;;;;;;17.58;6.50;;;;;;;19.27;32.08;94344.91;5021622;28;20652;-74
2022/03/29 10:40:41;;;;;;;33.13;8.35;;;;;;;19.43;31.96;94350.81;5012709;28;20710;-73
2022/03/29 10:43:34;;;;;;;21.00;7.75;;;;;;;19.61;31.29;94346.16;5012136;28;20205;-73
2022/03/29 10:46:22;;;;;;;28.83;6.93;;;;;;;19.52;33.29;94346.53;4979486;28;20250;-74
2022/03/29 10:49:17;;;;;;;19.30;6.07;;;;;;;19.73;31.77;94340.25;5031719;28;20205;-73
2022/03/29 10:51:45;;;;;;;21.27;6.65;;;;;;;19.85;30.67;94330.81;5025456;28;20277;-74
2022/03/29 10:54:29;;;;;;;21.60;6.28;;;;;;;19.75;29.62;94326.91;5012368;28;20556;-73
2022/03/29 10:56:57;;;;;;;16.73;5.63;;;;;;;19.72;30.32;94324.16;5012701;28;20216;-73
2022/03/29 10:59:24;;;;;;;20.83;6.50;;;;;;;19.78;30.27;94326.13;5015590;28;20292;-74
2022/03/29 11:02:10;;;;;;;20.60;6.07;;;;;;;19.92;30.44;94308.84;5032056;28;20242;-72
2022/03/29 11:04:37;;;;;;;20.05;5.32;;;;;;;20.48;29.60;94318.97;5031602;28;20551;-74
2022/03/29 11:07:14;;;;;;;22.92;6.32;;;;;;;21.05;28.30;94301.38;5032089;28;20232;-74
2022/03/29 11:09:44;;;;;;;21.65;5.50;;;;;;;21.23;28.88;94302.88;5032192;28;20203;-73
2022/03/29 11:12:37;;;;;;;21.45;5.95;;;;;;;20.15;29.73;94305.66;5015474;28;20300;-74
2022/03/29 11:15:41;;;;;;;25.80;5.32;;;;;;;20.28;28.90;94295.00;5012273;28;20311;-73
2022/03/29 11:18:49;;;;;;;26.33;5.82;;;;;;;19.84;29.75;94280.56;5012119;28;20213;-73
2022/03/29 11:21:32;;;;;;;14.57;5.40;;;;;;;19.86;30.10;94283.69;5011972;28;20545;-74
2022/03/29 11:24:03;;;;;;;17.95;5.47;;;;;;;19.99;30.23;94275.03;5014761;28;20229;-72
2022/03/29 11:26:31;;;;;;;19.15;5.50;;;;;;;20.51;30.39;94274.13;5025507;28;20239;-74
2022/03/29 11:28:59;;;;;;;13.98;4.97;;;;;;;20.31;29.58;94269.47;5019584;28;20203;-75
2022/03/29 11:31:34;;;;;;;15.80;4.95;;;;;;;19.65;30.47;94278.25;5018609;28;20327;-74
2022/03/29 11:34:01;;;;;;;14.40;4.75;;;;;;;18.42;31.79;94269.34;5022284;28;20208;-75
2022/03/29 11:36:28;;;;;;;13.05;5.13;;;;;;;19.06;31.14;94275.03;5024596;28;20717;-75
2022/03/29 11:38:55;;;;;;;12.57;5.00;;;;;;;19.46;30.48;94264.84;5021146;28;20270;-73